SKV weather

St Catherine International Airport
South Sinai Governorate, Egypt

Public forecast

Using degrees Celsius for public forecast. Weather courtesy of forecast.io.

METAR (pilot weather report)

Report is more than 6 hours old.

Retrieved 2019/03/18 11:00 UTC (5 days ago):

HESC 181100Z METAR HESG 181100Z 33007KT CAVOK 24/06 Q1016 NOSIG

TAF (pilot weather forecast)

Forecast is more than 12 hours old.

Retrieved 2019/03/20 18:12 UTC (3 days ago):

TAF HESC 201700Z 2018/2124 VRB03KT CAVOK BECMG 2107/2109 01011KT BECMG 2119/2121 VRB03KT